Time;durP1;ratioP1;P1;durP2;ratioP2;P2;SDS_P1;SDS_P2;PMS_P1;PMS_P2;Temp;Humidity;BMP_temperature;BMP_pressure;BME280_temperature;BME280_humidity;BME280_pressure;Samples;Min_cycle;Max_cycle;Signal;HPM_P1;HPM_P2
2022/12/29 00:01:16;;;;;;;1.47;1.23;;;;;;;5.85;100.00;100156.81;4998325;28;20201;-72
2022/12/29 00:03:46;;;;;;;1.80;1.30;;;;;;;5.85;100.00;100149.88;5000991;28;20371;-72
2022/12/29 00:06:14;;;;;;;3.07;1.77;;;;;;;5.85;100.00;100144.72;4997945;28;20612;-71
2022/12/29 00:08:40;;;;;;;3.50;1.70;;;;;;;5.82;100.00;100138.72;5002590;28;20584;-72
2022/12/29 00:11:07;;;;;;;2.40;1.40;;;;;;;5.78;100.00;100134.50;4998517;28;20208;-73
2022/12/29 00:16:17;;;;;;;2.43;1.43;;;;;;;5.75;100.00;100117.28;5001808;28;20224;-72
2022/12/29 00:18:44;;;;;;;3.67;2.00;;;;;;;5.70;100.00;100119.09;5000149;28;20209;-73
2022/12/29 00:35:09;;;;;;;1.87;1.57;;;;;;;5.58;100.00;100112.34;5009796;28;20209;-72
2022/12/29 00:45:49;;;;;;;3.53;1.40;;;;;;;5.56;100.00;100077.03;4999691;28;20621;-72
2022/12/29 00:49:29;;;;;;;1.50;1.27;;;;;;;5.56;100.00;100077.91;5000793;28;20235;-73
2022/12/29 00:51:01;;;;;;;2.07;1.50;;;;;;;5.55;100.00;100064.97;4988886;28;20216;-72
2022/12/29 00:53:30;;;;;;;2.57;1.50;;;;;;;5.54;100.00;100060.69;4996980;28;20211;-72
2022/12/29 00:55:57;;;;;;;2.47;1.70;;;;;;;5.54;100.00;100063.25;5012496;28;20225;-72
2022/12/29 00:58:23;;;;;;;2.87;1.57;;;;;;;5.56;100.00;100053.75;4998869;28;20204;-73
2022/12/29 01:00:49;;;;;;;2.20;1.40;;;;;;;5.54;100.00;100048.63;4994879;28;20201;-72
2022/12/29 01:03:16;;;;;;;2.73;1.57;;;;;;;5.53;100.00;100048.66;5011672;28;20212;-72
2022/12/29 01:05:42;;;;;;;2.23;1.40;;;;;;;5.54;100.00;100037.41;4991823;28;20204;-72
2022/12/29 01:08:09;;;;;;;2.70;1.40;;;;;;;5.53;100.00;100041.72;4994311;28;20714;-72
2022/12/29 01:10:35;;;;;;;3.70;1.43;;;;;;;5.54;100.00;100033.09;4997777;28;20204;-72
2022/12/29 01:13:02;;;;;;;3.77;1.80;;;;;;;5.54;100.00;100038.28;5000106;28;20640;-72
2022/12/29 01:15:28;;;;;;;1.93;1.43;;;;;;;5.53;100.00;100040.88;5000228;28;20205;-73
2022/12/29 01:17:55;;;;;;;1.73;0.97;;;;;;;5.53;100.00;100039.13;4994686;28;20196;-73
2022/12/29 01:20:21;;;;;;;1.37;1.27;;;;;;;5.56;100.00;100043.41;5000573;28;20224;-73
2022/12/29 01:22:47;;;;;;;1.50;1.40;;;;;;;5.57;100.00;100050.28;4997692;28;20223;-72
2022/12/29 01:25:14;;;;;;;2.40;1.60;;;;;;;5.58;100.00;100039.09;4997149;28;20207;-72
2022/12/29 01:27:41;;;;;;;1.40;1.20;;;;;;;5.54;100.00;100042.56;4997005;28;20319;-72
2022/12/29 01:30:09;;;;;;;1.70;1.40;;;;;;;5.57;100.00;100045.13;5011488;28;20217;-72
2022/12/29 01:32:35;;;;;;;1.53;1.20;;;;;;;5.57;100.00;100037.38;5011765;28;20209;-72
2022/12/29 01:35:03;;;;;;;3.00;1.50;;;;;;;5.59;100.00;100040.78;4998716;28;20201;-72
2022/12/29 01:37:29;;;;;;;2.90;1.50;;;;;;;5.59;100.00;100033.03;4995952;28;20214;-72
2022/12/29 01:39:56;;;;;;;2.37;1.27;;;;;;;5.59;100.00;100033.88;4992207;28;20593;-73
2022/12/29 01:42:25;;;;;;;1.93;1.40;;;;;;;5.60;100.00;100017.47;4999631;28;20201;-72
2022/12/29 01:44:55;;;;;;;2.97;1.37;;;;;;;5.60;100.00;100027.81;5014826;28;20189;-72
2022/12/29 01:47:30;;;;;;;1.67;1.40;;;;;;;5.59;100.00;100015.75;4997792;28;20216;-72
2022/12/29 01:49:58;;;;;;;2.07;1.43;;;;;;;5.60;100.00;100035.59;4992769;28;20420;-72
2022/12/29 01:52:29;;;;;;;1.37;1.13;;;;;;;5.64;100.00;100029.47;4999833;28;20679;-72
2022/12/29 01:54:57;;;;;;;2.10;1.53;;;;;;;5.65;100.00;100020.84;4991897;28;22319;-72
2022/12/29 01:57:28;;;;;;;1.30;1.20;;;;;;;5.68;100.00;100018.22;4999871;28;20221;-72
2022/12/29 01:59:59;;;;;;;3.03;1.20;;;;;;;5.69;100.00;100016.47;4994127;28;20209;-72
2022/12/29 02:02:25;;;;;;;2.17;1.00;;;;;;;5.75;100.00;100019.00;4999156;28;20209;-72
2022/12/29 02:04:56;;;;;;;1.90;1.40;;;;;;;5.75;100.00;100018.13;4995831;28;20192;-72
2022/12/29 02:07:27;;;;;;;2.13;1.17;;;;;;;5.75;100.00;100010.34;5000676;28;20213;-72
2022/12/29 02:09:55;;;;;;;1.97;1.60;;;;;;;5.75;100.00;100012.94;4997321;28;20201;-72
2022/12/29 02:12:24;;;;;;;1.97;1.70;;;;;;;5.75;100.00;100011.22;5011181;28;20657;-72
2022/12/29 02:14:54;;;;;;;2.00;1.33;;;;;;;5.78;100.00;100005.13;4995397;28;20201;-72
2022/12/29 02:17:34;;;;;;;1.30;1.20;;;;;;;5.80;100.00;100009.41;4998872;28;21046;-72
2022/12/29 02:20:24;;;;;;;2.10;1.50;;;;;;;5.83;100.00;100008.50;5012253;28;20916;-72
2022/12/29 02:23:10;;;;;;;1.50;1.30;;;;;;;5.85;100.00;100010.19;5009499;28;20678;-72
2022/12/29 02:25:59;;;;;;;1.67;1.27;;;;;;;5.93;100.00;100012.66;4995214;28;20314;-72
2022/12/29 02:28:49;;;;;;;2.00;1.43;;;;;;;5.95;100.00;100012.63;5012588;28;20630;-72
2022/12/29 02:31:28;;;;;;;1.60;1.27;;;;;;;5.97;100.00;100003.13;4998822;28;20682;-72
2022/12/29 02:34:07;;;;;;;3.33;1.20;;;;;;;5.97;100.00;100003.97;4996859;28;20287;-72
2022/12/29 02:36:44;;;;;;;2.70;1.27;;;;;;;5.99;100.00;99998.78;4999466;28;20496;-72
2022/12/29 02:39:20;;;;;;;1.40;1.00;;;;;;;5.98;100.00;99997.06;4998080;28;20199;-72
2022/12/29 02:41:57;;;;;;;1.60;1.20;;;;;;;6.01;100.00;100000.44;5014194;28;20223;-73
2022/12/29 02:44:29;;;;;;;2.10;1.33;;;;;;;6.03;100.00;99990.06;4997985;28;20204;-72
2022/12/29 02:47:02;;;;;;;1.60;1.10;;;;;;;6.02;100.00;99986.66;4994711;28;20227;-72
2022/12/29 02:49:35;;;;;;;1.70;1.10;;;;;;;6.05;100.00;99994.34;4994067;28;20248;-72
2022/12/29 02:52:05;;;;;;;2.13;1.40;;;;;;;6.09;100.00;99994.31;5009489;28;20570;-72
2022/12/29 02:54:41;;;;;;;2.20;1.43;;;;;;;6.07;100.00;99995.19;4996963;28;20202;-72
2022/12/29 02:57:15;;;;;;;1.33;1.17;;;;;;;6.07;100.00;99991.75;4992186;28;20224;-72
2022/12/29 02:59:43;;;;;;;1.23;1.13;;;;;;;6.06;100.00;99980.53;4990164;28;20585;-72
2022/12/29 03:02:30;;;;;;;3.13;1.27;;;;;;;6.10;100.00;99999.44;4994484;28;20203;-72
2022/12/29 03:05:15;;;;;;;1.20;1.10;;;;;;;6.08;100.00;99990.84;5008129;28;20210;-72
2022/12/29 03:07:52;;;;;;;1.70;1.30;;;;;;;6.11;100.00;99992.56;5012954;28;20221;-72
2022/12/29 03:10:39;;;;;;;3.97;1.47;;;;;;;6.10;100.00;99986.50;4998648;28;20201;-72
2022/12/29 03:16:05;;;;;;;1.93;1.67;;;;;;;6.11;100.00;99989.97;4996656;28;20217;-72
2022/12/29 03:18:42;;;;;;;1.30;1.20;;;;;;;6.09;100.00;99984.81;4996369;28;20254;-72
2022/12/29 03:21:14;;;;;;;2.10;1.37;;;;;;;6.10;100.00;99996.84;4996097;28;20209;-72
2022/12/29 03:23:47;;;;;;;1.97;1.30;;;;;;;6.13;100.00;99996.81;4997421;28;20201;-72
2022/12/29 03:26:16;;;;;;;1.43;1.10;;;;;;;6.16;100.00;100003.69;4995671;28;20226;-72
2022/12/29 03:28:47;;;;;;;2.07;1.20;;;;;;;6.16;100.00;100001.09;5012557;28;20746;-72
2022/12/29 03:31:22;;;;;;;1.47;1.27;;;;;;;6.16;100.00;99998.50;5001466;28;21782;-72
2022/12/29 03:33:51;;;;;;;1.67;0.97;;;;;;;6.18;100.00;99978.63;4999742;28;20240;-72
2022/12/29 03:36:26;;;;;;;2.03;1.20;;;;;;;6.18;100.00;99979.44;5017149;28;20220;-72
2022/12/29 03:39:00;;;;;;;3.60;1.60;;;;;;;6.18;100.00;99968.25;5017647;28;20262;-72
2022/12/29 03:41:30;;;;;;;2.13;1.40;;;;;;;6.17;100.00;99967.38;5018669;28;20208;-72
2022/12/29 03:43:58;;;;;;;1.27;1.13;;;;;;;6.16;100.00;99972.63;4999397;28;20217;-72
2022/12/29 03:46:25;;;;;;;1.50;1.13;;;;;;;6.15;100.00;99957.94;5001494;28;20225;-72
2022/12/29 03:48:53;;;;;;;2.10;1.20;;;;;;;6.14;100.00;99956.22;4998422;28;20223;-72
2022/12/29 03:51:19;;;;;;;1.40;1.23;;;;;;;6.13;100.00;99954.53;4998620;28;20583;-72
2022/12/29 03:53:45;;;;;;;1.83;1.40;;;;;;;6.10;100.00;99952.84;4999718;28;20213;-73
2022/12/29 03:56:12;;;;;;;1.40;1.20;;;;;;;6.14;100.00;99949.34;4998459;28;20968;-72
2022/12/29 03:58:39;;;;;;;2.50;1.07;;;;;;;6.14;100.00;99953.63;4997734;28;20561;-72
2022/12/29 04:01:11;;;;;;;2.77;1.80;;;;;;;6.13;100.00;99946.78;5000468;28;20636;-72
2022/12/29 04:03:39;;;;;;;2.53;1.90;;;;;;;6.16;100.00;99947.56;5011726;28;20223;-72
2022/12/29 04:06:07;;;;;;;2.40;1.60;;;;;;;6.18;100.00;99940.63;4999569;28;20244;-72
2022/12/29 04:08:39;;;;;;;2.80;2.00;;;;;;;6.17;100.00;99935.47;4996998;28;20224;-72
2022/12/29 04:11:06;;;;;;;2.83;2.00;;;;;;;6.19;100.00;99936.28;4994840;28;20206;-72
2022/12/29 04:13:33;;;;;;;2.13;1.83;;;;;;;6.19;100.00;99938.88;5016179;28;20691;-72
2022/12/29 04:16:00;;;;;;;2.53;1.73;;;;;;;6.20;100.00;99938.84;5015415;28;20622;-72
2022/12/29 04:18:27;;;;;;;2.37;1.73;;;;;;;6.22;100.00;99941.41;4993728;28;20214;-72
2022/12/29 04:21:03;;;;;;;2.80;1.97;;;;;;;6.21;100.00;99948.34;4993877;28;20292;-72
2022/12/29 04:23:34;;;;;;;2.67;1.60;;;;;;;6.24;100.00;99937.94;5013203;28;20204;-72
2022/12/29 04:26:03;;;;;;;6.27;1.80;;;;;;;6.25;100.00;99937.03;4991544;28;20235;-72
2022/12/29 04:28:31;;;;;;;3.53;2.10;;;;;;;6.24;100.00;99947.41;4996545;28;20305;-72
2022/12/29 04:30:57;;;;;;;2.00;1.57;;;;;;;6.24;100.00;99942.25;5000441;28;20261;-72
2022/12/29 04:33:27;;;;;;;1.60;1.30;;;;;;;6.27;100.00;99944.78;4993646;28;20200;-72
2022/12/29 04:35:54;;;;;;;3.47;1.70;;;;;;;6.28;100.00;99950.78;4998147;28;20319;-72
2022/12/29 04:38:22;;;;;;;1.83;1.33;;;;;;;6.31;100.00;99941.22;5014250;28;20204;-72
2022/12/29 04:40:51;;;;;;;1.40;1.30;;;;;;;6.33;100.00;99936.03;4990826;28;20197;-72
2022/12/29 04:43:21;;;;;;;1.83;1.50;;;;;;;6.37;100.00;99925.59;4995993;28;20762;-72
2022/12/29 04:46:13;;;;;;;2.20;1.50;;;;;;;6.40;100.00;99928.13;5013580;28;20224;-72
2022/12/29 04:48:47;;;;;;;1.73;1.20;;;;;;;6.39;100.00;99926.41;4998384;28;20697;-72
2022/12/29 04:51:29;;;;;;;1.30;1.20;;;;;;;6.40;100.00;99925.53;5014816;28;20205;-72
2022/12/29 04:53:56;;;;;;;1.60;1.47;;;;;;;6.43;100.00;99924.59;4996351;28;20219;-72
2022/12/29 04:56:25;;;;;;;1.50;1.17;;;;;;;6.44;100.00;99926.34;4997740;28;20217;-72
2022/12/29 04:58:51;;;;;;;1.33;1.20;;;;;;;6.46;100.00;99924.56;4999110;28;20226;-72
2022/12/29 05:01:20;;;;;;;3.33;1.10;;;;;;;6.52;100.00;99921.81;4997653;28;20762;-72
2022/12/29 05:03:47;;;;;;;2.00;1.13;;;;;;;6.54;100.00;99926.97;5011711;28;20584;-72
2022/12/29 05:06:13;;;;;;;1.80;1.03;;;;;;;6.56;100.00;99923.50;4999451;28;20220;-72
2022/12/29 05:08:39;;;;;;;2.77;1.57;;;;;;;6.60;100.00;99938.06;4998331;28;20728;-72
2022/12/29 05:11:06;;;;;;;2.77;1.30;;;;;;;6.63;100.00;99934.53;4994955;28;20202;-72
2022/12/29 05:13:33;;;;;;;1.40;1.10;;;;;;;6.66;100.00;99931.06;4998989;28;20289;-72
2022/12/29 05:16:00;;;;;;;1.10;1.00;;;;;;;6.68;100.00;99935.31;4996446;28;20230;-73
2022/12/29 05:18:27;;;;;;;2.37;1.23;;;;;;;6.71;100.00;99937.00;4994445;28;20740;-72
2022/12/29 05:20:54;;;;;;;1.03;0.90;;;;;;;6.74;100.00;99931.75;4995849;28;20212;-72
2022/12/29 05:23:22;;;;;;;1.63;1.27;;;;;;;6.78;100.00;99941.16;4995745;28;20287;-72
2022/12/29 05:26:09;;;;;;;1.80;1.20;;;;;;;6.80;100.00;99945.41;4992516;28;20228;-71
2022/12/29 05:28:49;;;;;;;1.43;1.20;;;;;;;6.85;100.00;99937.53;4978210;28;20383;-74
2022/12/29 05:31:19;;;;;;;1.53;1.17;;;;;;;6.87;100.00;99938.34;4979318;28;20566;-74
2022/12/29 05:33:47;;;;;;;1.40;1.20;;;;;;;6.89;100.00;99938.34;5000717;28;20241;-74
2022/12/29 05:36:14;;;;;;;1.43;1.23;;;;;;;6.92;100.00;99938.28;4980489;28;20204;-74
2022/12/29 05:38:46;;;;;;;1.10;1.00;;;;;;;6.92;100.00;99930.50;4982869;28;20584;-74
2022/12/29 05:41:13;;;;;;;1.83;1.20;;;;;;;6.95;100.00;99928.69;4982781;28;20703;-74
2022/12/29 05:44:02;;;;;;;1.43;1.13;;;;;;;7.03;100.00;99938.88;4978590;28;20241;-71
2022/12/29 05:46:32;;;;;;;1.40;1.10;;;;;;;7.02;100.00;99932.00;4978676;28;20204;-73
2022/12/29 05:49:09;;;;;;;1.90;1.20;;;;;;;7.06;100.00;99937.97;4980034;28;20669;-74
2022/12/29 05:51:52;;;;;;;2.03;1.07;;;;;;;7.07;100.00;99922.38;4971703;28;20717;-73
2022/12/29 05:54:19;;;;;;;2.10;1.50;;;;;;;7.08;100.00;99929.25;4985153;28;20215;-74
2022/12/29 05:56:45;;;;;;;4.10;2.27;;;;;;;7.11;100.00;99931.78;4976953;28;20309;-71
2022/12/29 05:59:14;;;;;;;2.33;1.83;;;;;;;7.09;100.00;99924.91;4981138;28;20265;-72
2022/12/29 06:01:41;;;;;;;2.07;1.87;;;;;;;7.10;100.00;99924.88;4986322;28;20209;-74
2022/12/29 06:04:07;;;;;;;1.50;1.40;;;;;;;7.10;100.00;99911.06;4982199;28;20633;-74
2022/12/29 06:06:34;;;;;;;1.33;1.23;;;;;;;7.09;100.00;99902.47;4982942;28;20268;-71
2022/12/29 06:09:00;;;;;;;1.37;1.20;;;;;;;7.07;100.00;99891.28;4983897;28;20294;-74
2022/12/29 06:11:27;;;;;;;1.90;1.00;;;;;;;7.09;100.00;99899.00;4976889;28;20202;-74
2022/12/29 06:13:56;;;;;;;1.50;1.40;;;;;;;7.07;100.00;99903.38;4993089;28;20218;-74
2022/12/29 06:16:25;;;;;;;1.17;1.00;;;;;;;7.08;100.00;99908.53;4979971;28;20714;-73
2022/12/29 06:18:56;;;;;;;2.17;1.30;;;;;;;7.11;100.00;99915.38;4980341;28;20202;-74
2022/12/29 06:21:22;;;;;;;2.40;1.20;;;;;;;7.11;100.00;99915.38;4991621;28;20307;-73
2022/12/29 06:23:49;;;;;;;1.30;1.20;;;;;;;7.14;100.00;99917.88;4976690;28;20254;-74
2022/12/29 06:26:15;;;;;;;0.90;0.90;;;;;;;7.14;100.00;99903.22;4983506;28;20436;-73
2022/12/29 06:28:42;;;;;;;1.97;1.20;;;;;;;7.15;100.00;99901.47;4980150;28;20450;-74
2022/12/29 06:31:10;;;;;;;2.63;1.40;;;;;;;7.18;100.00;99896.22;4982560;28;20216;-73
2022/12/29 06:33:38;;;;;;;1.60;0.90;;;;;;;7.20;100.00;99902.19;4976195;28;20312;-72
2022/12/29 06:36:05;;;;;;;1.50;1.40;;;;;;;7.23;100.00;99896.06;4975079;28;20630;-72
2022/12/29 06:38:31;;;;;;;1.47;1.37;;;;;;;7.27;100.00;99888.19;4977880;28;20195;-74
2022/12/29 06:40:59;;;;;;;2.43;1.33;;;;;;;7.27;100.00;99893.38;4982194;28;20211;-73
2022/12/29 06:43:37;;;;;;;1.50;1.23;;;;;;;7.27;100.00;99893.38;4984053;28;20202;-74
2022/12/29 06:46:08;;;;;;;1.23;1.10;;;;;;;7.29;100.00;99889.00;4979412;28;20201;-71
2022/12/29 06:48:34;;;;;;;2.87;1.63;;;;;;;7.31;100.00;99897.59;4978818;28;20222;-73
2022/12/29 06:51:02;;;;;;;1.57;1.30;;;;;;;7.28;100.00;99904.59;4978312;28;20203;-73
2022/12/29 06:53:29;;;;;;;1.40;1.20;;;;;;;7.22;100.00;99907.34;4981708;28;20213;-74
2022/12/29 06:55:56;;;;;;;1.27;1.17;;;;;;;7.16;100.00;99903.16;4978945;28;20212;-74
2022/12/29 06:58:22;;;;;;;1.47;1.20;;;;;;;7.07;100.00;99911.13;4979212;28;20291;-74
2022/12/29 07:00:49;;;;;;;1.30;1.20;;;;;;;7.00;100.00;99900.06;4979606;28;20691;-73
2022/12/29 07:03:15;;;;;;;1.57;0.90;;;;;;;6.89;100.00;99894.28;4980759;28;20283;-74
2022/12/29 07:05:41;;;;;;;2.67;1.47;;;;;;;6.79;100.00;99904.00;4984999;28;20603;-73
2022/12/29 07:08:09;;;;;;;1.40;1.20;;;;;;;6.77;100.00;99906.63;4978829;28;20204;-72
2022/12/29 07:10:35;;;;;;;2.20;1.30;;;;;;;6.74;100.00;99909.28;4982102;28;20203;-73
2022/12/29 07:13:07;;;;;;;2.87;1.17;;;;;;;6.73;100.00;99919.69;4980811;28;20208;-72
2022/12/29 07:15:34;;;;;;;1.30;1.20;;;;;;;6.72;100.00;99912.78;4978019;28;20232;-72
2022/12/29 07:18:01;;;;;;;1.83;1.50;;;;;;;6.72;100.00;99929.19;4980776;28;20216;-71
2022/12/29 07:20:29;;;;;;;1.77;1.40;;;;;;;6.65;100.00;99922.44;4979117;28;20201;-74
2022/12/29 07:22:55;;;;;;;2.43;1.40;;;;;;;6.58;100.00;99929.47;4984515;28;20209;-74
2022/12/29 07:25:23;;;;;;;1.73;1.50;;;;;;;6.53;100.00;99927.88;4985271;28;20746;-72
2022/12/29 07:27:50;;;;;;;2.30;1.50;;;;;;;6.44;100.00;99929.75;4986574;28;20224;-74
2022/12/29 07:30:16;;;;;;;1.97;1.27;;;;;;;6.39;100.00;99936.78;4981663;28;20623;-71
2022/12/29 07:32:43;;;;;;;4.33;1.97;;;;;;;6.34;100.00;99941.19;4983061;28;20217;-73
2022/12/29 07:35:10;;;;;;;2.00;1.70;;;;;;;6.32;100.00;99929.16;4983142;28;20305;-74
2022/12/29 07:37:36;;;;;;;2.53;1.67;;;;;;;6.31;100.00;99927.44;4981767;28;20639;-74
2022/12/29 07:40:03;;;;;;;1.27;1.17;;;;;;;6.28;100.00;99930.97;4979378;28;20602;-74
2022/12/29 07:42:31;;;;;;;2.70;1.67;;;;;;;6.25;100.00;99916.31;4983311;28;20296;-73
2022/12/29 07:44:59;;;;;;;4.30;1.90;;;;;;;6.24;100.00;99932.75;4985109;28;20563;-70
2022/12/29 07:47:35;;;;;;;2.57;1.83;;;;;;;6.24;100.00;99922.41;4982154;28;20621;-74
2022/12/29 07:50:02;;;;;;;1.93;1.50;;;;;;;6.25;100.00;99934.44;4981513;28;20578;-73
2022/12/29 07:52:28;;;;;;;3.00;1.77;;;;;;;6.24;100.00;99932.75;4981414;28;20296;-73
2022/12/29 07:54:55;;;;;;;2.43;1.77;;;;;;;6.20;100.00;99930.25;4979531;28;20218;-74
2022/12/29 07:57:21;;;;;;;2.37;1.60;;;;;;;6.23;100.00;99925.88;4983428;28;20202;-73
2022/12/29 07:59:49;;;;;;;5.27;2.17;;;;;;;6.24;100.00;99932.75;4981529;28;20297;-73
2022/12/29 08:02:16;;;;;;;2.33;2.13;;;;;;;6.27;100.00;99936.16;4983259;28;20225;-73
2022/12/29 08:04:42;;;;;;;4.13;2.27;;;;;;;6.25;100.00;99938.78;4980389;28;20232;-73
2022/12/29 08:07:08;;;;;;;3.43;2.70;;;;;;;6.29;100.00;99921.44;4984335;28;20637;-73
2022/12/29 08:09:35;;;;;;;3.13;2.57;;;;;;;6.28;100.00;99927.50;4983218;28;20228;-74
2022/12/29 08:12:02;;;;;;;4.83;3.27;;;;;;;6.26;100.00;99930.13;4985658;28;20570;-73
2022/12/29 08:14:29;;;;;;;3.03;2.20;;;;;;;6.28;100.00;99930.09;4982212;28;20770;-73
2022/12/29 08:16:56;;;;;;;4.80;2.27;;;;;;;6.29;100.00;99919.69;4986355;28;20602;-74
2022/12/29 08:19:23;;;;;;;3.53;1.63;;;;;;;6.32;100.00;99924.81;4979380;28;20637;-74
2022/12/29 08:21:49;;;;;;;4.27;2.20;;;;;;;6.33;100.00;99923.97;4983473;28;20686;-73
2022/12/29 08:24:15;;;;;;;4.43;2.00;;;;;;;6.34;100.00;99923.06;4985628;28;20221;-73
2022/12/29 08:26:42;;;;;;;11.30;5.97;;;;;;;6.34;100.00;99925.66;4984305;28;20215;-73
2022/12/29 08:29:08;;;;;;;2.87;2.00;;;;;;;6.44;100.00;99927.16;4990368;28;20317;-73
2022/12/29 08:31:35;;;;;;;6.07;3.13;;;;;;;6.45;100.00;99930.59;4984242;28;20213;-74
2022/12/29 08:34:03;;;;;;;3.80;2.63;;;;;;;6.46;100.00;99923.72;4979576;28;20596;-74
2022/12/29 08:36:30;;;;;;;5.27;3.10;;;;;;;6.45;100.00;99930.59;4982093;28;20713;-72
2022/12/29 08:38:57;;;;;;;5.40;3.40;;;;;;;6.57;100.00;99932.94;4979122;28;20202;-74
2022/12/29 08:41:24;;;;;;;4.40;2.30;;;;;;;6.58;100.00;99933.81;4987660;28;20208;-71
2022/12/29 08:43:51;;;;;;;6.00;2.50;;;;;;;6.61;100.00;99933.72;4977408;28;20309;-73
2022/12/29 08:46:17;;;;;;;4.03;2.67;;;;;;;6.66;100.00;99944.00;4982606;28;20568;-73
2022/12/29 08:48:44;;;;;;;5.23;2.67;;;;;;;6.76;100.00;99954.16;4983198;28;20208;-73
2022/12/29 08:51:12;;;;;;;5.83;2.77;;;;;;;6.80;100.00;99941.97;4978863;28;20386;-73
2022/12/29 08:53:38;;;;;;;4.93;2.73;;;;;;;6.79;100.00;99943.72;4979968;28;20237;-73
2022/12/29 08:56:05;;;;;;;5.47;2.27;;;;;;;6.80;100.00;99935.03;4985665;28;20229;-74
2022/12/29 08:58:40;;;;;;;2.83;1.97;;;;;;;6.88;100.00;99940.09;4983853;28;20205;-73
2022/12/29 09:01:07;;;;;;;3.57;2.10;;;;;;;6.87;100.00;99943.53;4978908;28;20522;-73
2022/12/29 09:03:33;;;;;;;2.70;1.87;;;;;;;6.90;100.00;99942.66;4980581;28;20634;-73
2022/12/29 09:05:59;;;;;;;2.70;2.00;;;;;;;6.95;100.00;99941.66;4983398;28;20554;-74
2022/12/29 09:08:27;;;;;;;2.93;1.97;;;;;;;6.99;100.00;99938.09;4985530;28;20198;-74
2022/12/29 09:10:53;;;;;;;2.03;1.40;;;;;;;7.07;100.00;99939.66;4976331;28;20234;-72
2022/12/29 09:13:20;;;;;;;3.10;1.80;;;;;;;7.13;100.00;99936.94;4980953;28;20220;-73
2022/12/29 09:15:47;;;;;;;3.03;1.90;;;;;;;7.23;100.00;99934.97;4983516;28;20284;-74
2022/12/29 09:18:13;;;;;;;3.27;2.53;;;;;;;7.29;100.00;99943.47;4981118;28;20211;-74
2022/12/29 09:20:40;;;;;;;4.20;1.83;;;;;;;7.39;100.00;99954.50;4984345;28;20220;-74
2022/12/29 09:23:06;;;;;;;2.37;2.17;;;;;;;7.43;100.00;99944.88;4979251;28;20212;-73
2022/12/29 09:25:34;;;;;;;1.87;1.60;;;;;;;7.48;100.00;99930.91;4979945;28;20232;-74
2022/12/29 09:28:03;;;;;;;2.07;1.87;;;;;;;7.58;100.00;99939.31;4979241;28;20222;-73
2022/12/29 09:30:30;;;;;;;2.20;1.40;;;;;;;7.73;100.00;99948.47;4979730;28;20225;-72
2022/12/29 09:32:56;;;;;;;1.40;1.30;;;;;;;7.85;100.00;99942.97;4982101;28;20211;-74
2022/12/29 09:35:23;;;;;;;1.67;1.43;;;;;;;7.97;100.00;99949.59;4976359;28;20295;-74
2022/12/29 09:37:49;;;;;;;2.13;1.20;;;;;;;8.08;100.00;99944.94;4977194;28;20207;-71
2022/12/29 09:40:26;;;;;;;1.33;1.20;;;;;;;8.26;100.00;99943.59;4978594;28;20232;-72
2022/12/29 09:43:13;;;;;;;1.17;1.07;;;;;;;8.56;100.00;99943.66;4977067;28;20196;-75
2022/12/29 09:45:44;;;;;;;1.80;1.20;;;;;;;8.74;100.00;99944.03;4995932;28;20586;-73
2022/12/29 09:48:16;;;;;;;1.40;1.27;;;;;;;8.93;100.00;99952.13;4978092;28;20205;-73
2022/12/29 09:50:48;;;;;;;1.10;0.90;;;;;;;8.98;100.00;99945.06;4977831;28;20220;-73
2022/12/29 09:53:18;;;;;;;1.80;1.07;;;;;;;8.94;100.00;99939.09;4975253;28;20678;-73
2022/12/29 09:55:49;;;;;;;3.70;1.30;;;;;;;9.03;100.00;99946.63;4978475;28;20202;-70
2022/12/29 09:58:23;;;;;;;1.30;1.20;;;;;;;9.10;100.00;99939.47;4978870;28;20686;-74
2022/12/29 10:00:55;;;;;;;2.83;1.80;;;;;;;9.10;100.00;99936.88;4974507;28;20212;-72
2022/12/29 10:03:24;;;;;;;1.10;1.00;;;;;;;9.17;100.00;99932.34;4979666;28;20574;-74
2022/12/29 10:05:56;;;;;;;1.30;1.10;;;;;;;9.24;100.00;99936.44;4973338;28;20708;-74
2022/12/29 10:08:32;;;;;;;1.00;0.90;;;;;;;9.24;100.00;99928.66;4978961;28;20212;-74
2022/12/29 10:11:07;;;;;;;1.53;1.00;;;;;;;9.39;100.00;99935.09;4981897;28;20223;-73
2022/12/29 10:13:44;;;;;;;0.70;0.70;;;;;;;9.45;100.00;99935.75;4980074;28;20666;-74
2022/12/29 10:16:15;;;;;;;1.30;1.20;;;;;;;9.41;100.00;99933.28;4974748;28;20201;-73
2022/12/29 10:19:06;;;;;;;0.90;0.87;;;;;;;9.39;100.00;99930.78;4976185;28;20210;-73
2022/12/29 10:21:47;;;;;;;1.10;0.83;;;;;;;9.43;100.00;99911.53;4983765;28;20201;-72
2022/12/29 10:24:14;;;;;;;1.00;0.90;;;;;;;9.52;100.00;99912.16;4979217;28;20225;-73
2022/12/29 10:26:42;;;;;;;1.00;0.90;;;;;;;9.65;100.00;99913.44;4978164;28;20303;-74
2022/12/29 10:29:16;;;;;;;0.90;0.90;;;;;;;9.77;100.00;99901.75;4980454;28;20201;-73
2022/12/29 10:31:47;;;;;;;0.80;0.70;;;;;;;9.85;100.00;99907.56;4980244;28;20210;-72
2022/12/29 10:34:19;;;;;;;1.40;1.30;;;;;;;9.89;100.00;99903.09;4979178;28;20714;-72
2022/12/29 10:36:49;;;;;;;1.37;1.27;;;;;;;9.82;100.00;99908.50;4980035;28;20286;-74
2022/12/29 10:39:20;;;;;;;1.80;1.30;;;;;;;9.88;100.00;99898.78;4993817;28;20204;-74
2022/12/29 10:41:50;;;;;;;1.60;1.20;;;;;;;9.90;100.00;99913.44;4980837;28;20205;-74
2022/12/29 10:44:21;;;;;;;1.20;0.70;;;;;;;9.95;100.00;99911.53;4982812;28;20238;-73
2022/12/29 10:46:56;;;;;;;1.10;1.00;;;;;;;10.00;100.00;99906.16;4998106;28;20763;-74
2022/12/29 10:49:28;;;;;;;0.90;0.90;;;;;;;10.08;100.00;99914.56;4994852;28;20295;-74
2022/12/29 10:51:58;;;;;;;4.20;1.07;;;;;;;10.17;100.00;99908.19;4980228;28;20227;-74
2022/12/29 10:54:28;;;;;;;0.97;0.80;;;;;;;10.16;100.00;99907.31;4979853;28;20230;-74
2022/12/29 10:57:00;;;;;;;3.80;1.10;;;;;;;10.25;100.00;99911.34;4982745;28;20198;-73
2022/12/29 10:59:31;;;;;;;0.90;0.90;;;;;;;10.27;100.00;99904.31;4983675;28;20282;-74
2022/12/29 11:02:05;;;;;;;1.90;1.00;;;;;;;10.28;100.00;99906.03;4977980;28;20663;-71
2022/12/29 11:04:43;;;;;;;1.13;0.83;;;;;;;10.27;100.00;99901.72;4992715;28;20595;-73
2022/12/29 11:07:11;;;;;;;2.13;1.40;;;;;;;10.27;100.00;99898.25;4983848;28;20595;-73
2022/12/29 11:09:40;;;;;;;1.20;1.00;;;;;;;10.36;100.00;99890.13;4984444;28;20224;-74
2022/12/29 11:12:24;;;;;;;1.30;1.00;;;;;;;10.32;100.00;99891.16;4977945;28;20199;-74
2022/12/29 11:15:13;;;;;;;1.03;0.97;;;;;;;10.38;100.00;99898.78;5006711;23;20227;-74
2022/12/29 11:17:46;;;;;;;1.57;0.90;;;;;;;10.48;100.00;99891.44;5015750;28;20755;-74
2022/12/29 11:20:33;;;;;;;1.80;1.17;;;;;;;10.50;100.00;99884.41;5012810;28;20212;-75
2022/12/29 11:23:00;;;;;;;2.13;0.90;;;;;;;10.55;100.00;99888.56;5012804;28;20281;-73
2022/12/29 11:25:27;;;;;;;1.40;1.03;;;;;;;10.59;100.00;99879.72;4995194;28;20196;-72
2022/12/29 11:28:02;;;;;;;1.07;0.90;;;;;;;10.59;100.00;99876.25;5011327;22;20242;-72
2022/12/29 11:30:31;;;;;;;0.90;0.70;;;;;;;10.63;100.00;99872.63;4979837;28;20226;-72
2022/12/29 11:32:59;;;;;;;1.77;0.90;;;;;;;10.69;100.00;99874.13;4977974;28;20566;-72
2022/12/29 11:35:34;;;;;;;0.70;0.70;;;;;;;10.78;100.00;99872.03;4981466;28;20708;-72
2022/12/29 11:38:03;;;;;;;0.93;0.90;;;;;;;10.84;100.00;99870.94;4983590;28;20227;-72
2022/12/29 11:40:30;;;;;;;1.37;0.90;;;;;;;10.86;100.00;99868.28;4971995;28;20211;-72
2022/12/29 11:42:59;;;;;;;0.90;0.90;;;;;;;10.86;100.00;99871.72;4977780;28;20211;-72
2022/12/29 11:45:28;;;;;;;1.00;0.90;;;;;;;10.89;100.00;99866.41;4978808;28;20207;-72
2022/12/29 11:47:58;;;;;;;0.60;0.50;;;;;;;10.95;100.00;99871.34;4979010;28;20217;-72
2022/12/29 11:50:29;;;;;;;1.20;0.90;;;;;;;11.01;100.00;99869.41;4982310;28;20213;-72
2022/12/29 11:53:01;;;;;;;3.23;0.90;;;;;;;11.03;100.00;99862.38;4983533;28;20740;-72
2022/12/29 11:55:29;;;;;;;3.03;0.93;;;;;;;11.03;100.00;99872.81;4979317;28;20794;-72
2022/12/29 11:58:01;;;;;;;1.00;0.80;;;;;;;11.11;100.00;99868.16;4975247;28;21649;-72
2022/12/29 12:00:30;;;;;;;1.30;0.80;;;;;;;11.16;100.00;99869.66;4984854;28;20734;-72
2022/12/29 12:03:03;;;;;;;0.70;0.70;;;;;;;11.15;100.00;99859.28;4985500;28;20487;-72
2022/12/29 12:05:38;;;;;;;0.80;0.80;;;;;;;11.16;100.00;99853.16;4974999;28;20201;-72
2022/12/29 12:08:12;;;;;;;0.70;0.70;;;;;;;11.16;100.00;99863.59;4973494;28;20239;-71
2022/12/29 12:10:44;;;;;;;1.13;0.73;;;;;;;11.20;100.00;99861.69;4978509;28;20220;-72
2022/12/29 12:13:21;;;;;;;1.87;0.80;;;;;;;11.24;100.00;99863.25;5004861;28;20208;-72